Archival Weather

Fukuoka

Fukuoka, Japan (RJFF)

Report from: Tuesday, August 16, 2022 8:00 PM JST
Current time: Sunday, November 27, 2022 6:48 PM JST

Current weather
Weather history
Weather forecast

Present weatherHeavy rain showers, thunderstorm with rain
Temperature26.0°C (78.8°F)
Dew point26.0°C (78.8°F)
Winds 14 kts (7.2 m/s, 16.1 mph) South-Southeast (160°)
Visibility4.3 mi. (7 km)
Clouds Few clouds 500 ft. (152 m)
Few clouds with cumulonimbus 3,000 ft. (914 m)
Scattered clouds 3,500 ft. (1,067 m)
Ceiling: Broken clouds 4,000 ft. (1,219 m)
Altimeter29.74 in.Hg (1007 mB)
Relative humidity100 %
Density altitude1,930 ft. (588 m)
Flight conditions Marginal Visual Meteorological Conditions
Raw dataRJFF 161100Z 16014KT 7000 +SHRA FEW005 FEW030CB SCT035 BKN040 26/26 Q1007 TEMPO 3000 TSRA BR
An error has occurred. This application may no longer respond until reloaded. Reload 🗙